Steve Richoux — WDC2820 — position and weather

sailwx.info

Track history (hours):
 
Tides and Currents Weather Stations Pressure Air Temp Water Temp Dewpoint Dewpoint Depression Visibility Wind Speed Wind Dir Waves Ship Positions

Steve Richoux

Owner: Marquette Transportation Company Gulf-Inland, LLC, Jefferson, LA. More information available from US FCC via Universal Licensing System and Coast Guard Vessel Documentation Center.

Last reported at 2018-Apr-10 12:37 UTC. Time now 2018-Apr-21 02:16 UTC.
Position N 29°33' W 090°27'.
Warning: this ship's position is 10 days out of date.

Length 21 m; draft 3.4 m.

Type: Tow > 200 m length. MMSI: 366998110.

Date/timePositionNaut miles runAvg speedWind from/ knotsBaromVisibWave heightAir tempDewpointWater temp
2018-Apr-10 12:37N 29°33' W 090°27'1 5.9
2018-Apr-10 12:22N 29°33' W 090°28'2 5.9
2018-Apr-10 12:00N 29°34' W 090°31'3 5.6
2018-Apr-10 11:30N 29°34' W 090°34'3 5.4
2018-Apr-10 11:01N 29°35' W 090°37'3 5.4
2018-Apr-10 10:30N 29°36' W 090°40'2 4.8
2018-Apr-10 10:00N 29°37' W 090°42'3 5.0
2018-Apr-10 09:30N 29°34' W 090°43'1 2.6
2018-Apr-10 09:00N 29°34' W 090°44'2 3.1
2018-Apr-10 08:30N 29°33' W 090°45'2 4.5
2018-Apr-10 08:00N 29°32' W 090°48'3 5.6
2018-Apr-10 07:30N 29°32' W 090°51'3 5.5
2018-Apr-10 06:59N 29°33' W 090°54'110 3.6
2018-Apr-09 00:29N 29°56' W 092°59'4 5.0
2018-Apr-08 23:45N 29°56' W 093°03'2 5.7
2018-Apr-08 23:26N 29°56' W 093°05'4 5.5
2018-Apr-08 22:44N 29°56' W 093°10'1 5.6
2018-Apr-08 22:30N 29°57' W 093°10'3 5.8
2018-Apr-08 22:00N 29°59' W 093°13'2 4.5
2018-Apr-08 21:30N 30°01' W 093°14'2 4.9
2018-Apr-08 21:00N 30°03' W 093°16'3 5.3
2018-Apr-08 20:30N 30°05' W 093°18'1 2.5
2018-Apr-08 20:00N 30°06' W 093°19'0 0.6
2018-Apr-08 19:30N 30°06' W 093°19'0 0.0
2018-Apr-08 19:00N 30°06' W 093°19'2 3.3
2018-Apr-08 18:30N 30°05' W 093°20'3 5.5
2018-Apr-08 18:00N 30°04' W 093°23'3 6.4
2018-Apr-08 17:30N 30°04' W 093°27'3 6.9
2018-Apr-08 17:00N 30°04' W 093°31'3 6.7
2018-Apr-08 16:30N 30°04' W 093°35'3 6.6
2018-Apr-08 16:00N 30°04' W 093°39'3 6.1
2018-Apr-08 15:30N 30°03' W 093°42'1 2.6
2018-Apr-08 15:00N 30°04' W 093°43'2 3.6
2018-Apr-08 14:31N 30°06' W 093°43'1 2.2
2018-Apr-08 14:00N 30°07' W 093°42'1 2.4
2018-Apr-08 13:30N 30°08' W 093°42'0 0.9
2018-Apr-08 12:58N 30°08' W 093°41'1 1.7
2018-Apr-08 12:30N 30°09' W 093°42'0 0.8
2018-Apr-08 11:58N 30°09' W 093°42'0 0.0
2018-Apr-08 11:30N 30°09' W 093°42'0 0.0
2018-Apr-08 11:00N 30°09' W 093°42'0 0.0
2018-Apr-08 10:30N 30°09' W 093°42'0 0.0
2018-Apr-08 10:00N 30°09' W 093°42'0 0.0
2018-Apr-08 09:30N 30°09' W 093°42'0 0.0
2018-Apr-08 09:00N 30°09' W 093°42'0 0.0
2018-Apr-08 08:31N 30°09' W 093°42'0 0.0
2018-Apr-08 08:00N 30°09' W 093°42'0 0.0
2018-Apr-08 07:30N 30°09' W 093°42'0 0.2
2018-Apr-08 07:00N 30°09' W 093°42'0 0.3
2018-Apr-08 06:17N 30°09' W 093°42'0 1.0
2018-Apr-08 06:00N 30°09' W 093°42'0 0.0
2018-Apr-08 05:30N 30°09' W 093°42'0 0.1
2018-Apr-08 05:01N 30°09' W 093°42'0 0.0
2018-Apr-08 04:30N 30°09' W 093°42'0 0.0
2018-Apr-08 04:00N 30°09' W 093°42'1 1.0
2018-Apr-08 03:26N 30°09' W 093°43'1 1.2
2018-Apr-08 03:00N 30°09' W 093°42'0 0.5
2018-Apr-08 02:27N 30°09' W 093°42'0 0.6
2018-Apr-08 02:00N 30°09' W 093°42'0 0.3
2018-Apr-08 01:16N 30°09' W 093°42'0 1.0
2018-Apr-08 01:00N 30°09' W 093°42'1 1.1
2018-Apr-08 00:30N 30°09' W 093°43'1 1.2
2018-Apr-08 00:01N 30°09' W 093°42'0 0.2
2018-Apr-07 23:30N 30°09' W 093°42'0 0.1
2018-Apr-07 22:59N 30°09' W 093°42'0 0.1
2018-Apr-07 22:29N 30°09' W 093°42'0 0.1
2018-Apr-07 22:00N 30°09' W 093°42'0 0.1
2018-Apr-07 21:27N 30°09' W 093°42'0 0.1
2018-Apr-07 21:00N 30°09' W 093°42'0 0.1
2018-Apr-07 20:30N 30°09' W 093°42'0 0.0
2018-Apr-07 20:00N 30°09' W 093°42'0 0.0
2018-Apr-07 19:30N 30°09' W 093°42'0 0.0
2018-Apr-07 19:00N 30°09' W 093°42'0 0.0
2018-Apr-07 18:30N 30°09' W 093°42'0 0.4
2018-Apr-07 17:58N 30°09' W 093°42'0 0.5
2018-Apr-07 17:30N 30°09' W 093°42'0 0.0
2018-Apr-07 17:00N 30°09' W 093°42'0 0.0
2018-Apr-07 16:30N 30°09' W 093°42'1 1.2
2018-Apr-07 16:01N 30°09' W 093°43'1 1.3
2018-Apr-07 15:30N 30°09' W 093°42'0 0.5
2018-Apr-07 15:00N 30°09' W 093°42'0 0.6
2018-Apr-07 14:30N 30°09' W 093°42'0 0.2
2018-Apr-07 14:00N 30°09' W 093°42'0 0.9
2018-Apr-07 13:31N 30°09' W 093°43'0 0.4
2018-Apr-07 13:01N 30°09' W 093°43'1 1.3
2018-Apr-07 12:31N 30°09' W 093°42'0 0.1
2018-Apr-07 12:01N 30°09' W 093°42'0 0.0
2018-Apr-07 11:30N 30°09' W 093°42'0 0.0
2018-Apr-07 11:00N 30°09' W 093°42'0 0.0
2018-Apr-07 10:30N 30°09' W 093°42'0 0.0
2018-Apr-07 10:00N 30°09' W 093°42'0 0.0
2018-Apr-07 09:30N 30°09' W 093°42'0 0.0
2018-Apr-07 09:00N 30°09' W 093°42'0 0.0
2018-Apr-07 08:30N 30°09' W 093°42'0 0.0
2018-Apr-07 07:59N 30°09' W 093°42'0 0.0
2018-Apr-07 07:30N 30°09' W 093°42'0 0.2
2018-Apr-07 06:59N 30°09' W 093°42'1 1.2
2018-Apr-07 06:10N 30°08' W 093°41'0 1.7
2018-Apr-07 05:58N 30°08' W 093°42'1 1.7
2018-Apr-07 05:26N 30°07' W 093°42'0 0.7
2018-Apr-07 04:57N 30°07' W 093°42'0 0.7
2018-Apr-07 04:29N 30°07' W 093°42'0 0.5
2018-Apr-07 03:59N 30°07' W 093°42'0 0.0
2018-Apr-07 03:30N 30°07' W 093°42'0 0.0
2018-Apr-07 03:00N 30°07' W 093°42'1 1.0
2018-Apr-07 02:30N 30°07' W 093°43'0 0.4
2018-Apr-07 02:00N 30°07' W 093°43'0 0.2
2018-Apr-07 01:30N 30°07' W 093°43'0 0.0
2018-Apr-07 00:57N 30°07' W 093°43'0 0.0
2018-Apr-07 00:30N 30°07' W 093°43'0 0.3
2018-Apr-07 00:00N 30°06' W 093°43'0 0.2
2018-Apr-06 23:17N 30°07' W 093°43'0 0.0
2018-Apr-06 22:55N 30°07' W 093°43'0 0.0
2018-Apr-06 22:10N 30°07' W 093°43'0 0.0
2018-Apr-06 21:51N 30°07' W 093°43'0 0.0
2018-Apr-06 21:15N 30°07' W 093°43'0 0.0
2018-Apr-06 20:42N 30°07' W 093°43'0 0.0
2018-Apr-06 20:30N 30°07' W 093°43'0 0.2
2018-Apr-06 20:00N 30°07' W 093°43'0 0.5
2018-Apr-06 19:30N 30°07' W 093°42'0 0.0
2018-Apr-06 18:59N 30°07' W 093°42'0 0.0
2018-Apr-06 18:30N 30°07' W 093°42'0 0.0
2018-Apr-06 18:00N 30°07' W 093°42'0 0.0
2018-Apr-06 17:28N 30°07' W 093°42'0 0.0
2018-Apr-06 16:57N 30°07' W 093°42'0 0.0
2018-Apr-06 16:29N 30°07' W 093°42'0 0.1
2018-Apr-06 16:00N 30°07' W 093°42'1 1.4
2018-Apr-06 15:30N 30°06' W 093°43'1 2.5
2018-Apr-06 14:58N 30°05' W 093°43'1 2.9
2018-Apr-06 14:30N 30°04' W 093°43'1 2.3
2018-Apr-06 14:00N 30°04' W 093°41'1 1.9
2018-Apr-06 13:30N 30°04' W 093°40'2 3.9
2018-Apr-06 13:00N 30°04' W 093°38'2 3.6
2018-Apr-06 12:30N 30°04' W 093°36'2 3.4
2018-Apr-06 11:59N 30°04' W 093°34'2 3.3
2018-Apr-06 11:30N 30°04' W 093°32'2 3.2
2018-Apr-06 11:00N 30°04' W 093°30'1 2.9
2018-Apr-06 10:30N 30°04' W 093°29'2 3.1
2018-Apr-06 10:00N 30°04' W 093°27'1 2.5
2018-Apr-06 09:30N 30°04' W 093°25'1 2.9
2018-Apr-06 09:00N 30°04' W 093°24'1 2.8
2018-Apr-06 08:30N 30°04' W 093°22'1 2.8
2018-Apr-06 08:00N 30°04' W 093°21'2 3.3
2018-Apr-06 07:30N 30°06' W 093°19'1 2.6
2018-Apr-06 07:00N 30°05' W 093°18'0 1.0
2018-Apr-06 06:30N 30°05' W 093°17'1 2.0
2018-Apr-06 06:00N 30°05' W 093°17'0 0.8
2018-Apr-06 05:30N 30°04' W 093°16'0 0.9
2018-Apr-06 05:00N 30°04' W 093°16'0 0.3
2018-Apr-06 04:30N 30°04' W 093°16'0 0.1
2018-Apr-06 04:00N 30°04' W 093°16'0 0.1
2018-Apr-06 03:30N 30°04' W 093°16'0 0.0
2018-Apr-06 03:00N 30°04' W 093°16'0 0.0
2018-Apr-06 02:30N 30°04' W 093°16'0 0.1
2018-Apr-06 02:00N 30°04' W 093°16'0 0.5
2018-Apr-06 01:30N 30°04' W 093°16'2 3.5
2018-Apr-06 01:00N 30°02' W 093°15'2 3.5
2018-Apr-06 00:30N 30°01' W 093°14'2 3.9
2018-Apr-06 00:00N 29°59' W 093°12'2 4.0
2018-Apr-05 23:30N 29°58' W 093°11'2 3.9
2018-Apr-05 23:00N 29°56' W 093°09'1 3.0
2018-Apr-05 22:30N 29°56' W 093°08'2 3.5
2018-Apr-05 22:00N 29°56' W 093°06'2 3.9
2018-Apr-05 21:29N 29°56' W 093°03'113 3.0
2018-Apr-04 08:28N 29°34' W 090°56'2 4.7
2018-Apr-04 07:58N 29°33' W 090°54'2 4.0
2018-Apr-04 07:30N 29°32' W 090°52'2 3.6
2018-Apr-04 07:00N 29°32' W 090°50'2 3.6
2018-Apr-04 06:30N 29°32' W 090°48'2 3.4
2018-Apr-04 06:00N 29°32' W 090°46'2 3.1
2018-Apr-04 05:30N 29°34' W 090°45'1 2.9
2018-Apr-04 05:00N 29°34' W 090°43'2 3.2
2018-Apr-04 04:29N 29°36' W 090°43'1 2.5
2018-Apr-04 04:00N 29°37' W 090°42'2 3.7
2018-Apr-04 03:30N 29°36' W 090°40'2 3.7
2018-Apr-04 03:00N 29°35' W 090°38'2 3.5
2018-Apr-04 02:30N 29°35' W 090°36'2 3.5
2018-Apr-04 01:59N 29°34' W 090°34'2 3.8
2018-Apr-04 01:30N 29°34' W 090°32'2 4.0
2018-Apr-04 01:00N 29°34' W 090°29'2 4.0
2018-Apr-04 00:30N 29°33' W 090°27'2 4.0
2018-Apr-03 23:58N 29°33' W 090°25'  
Track history (hours):
 
Tides and Currents Weather Stations Pressure Air Temp Water Temp Dewpoint Dewpoint Depression Visibility Wind Speed Wind Dir Waves Ship Positions

Steve Richoux

Owner: Marquette Transportation Company Gulf-Inland, LLC, Jefferson, LA. More information available from US FCC via Universal Licensing System and Coast Guard Vessel Documentation Center.

Last reported at 2018-Apr-10 12:37 UTC. Time now 2018-Apr-21 02:16 UTC.
Position N 29°33' W 090°27'.
Warning: this ship's position is 10 days out of date.

Length 21 m; draft 3.4 m.

Type: Tow > 200 m length. MMSI: 366998110.

Date/timePositionNaut miles runAvg speedWind from/ knotsBaromVisibWave heightAir tempDewpointWater temp
2018-Apr-10 12:37N 29°33' W 090°27'1 5.9
2018-Apr-10 12:22N 29°33' W 090°28'2 5.9
2018-Apr-10 12:00N 29°34' W 090°31'3 5.6
2018-Apr-10 11:30N 29°34' W 090°34'3 5.4
2018-Apr-10 11:01N 29°35' W 090°37'3 5.4
2018-Apr-10 10:30N 29°36' W 090°40'2 4.8
2018-Apr-10 10:00N 29°37' W 090°42'3 5.0
2018-Apr-10 09:30N 29°34' W 090°43'1 2.6
2018-Apr-10 09:00N 29°34' W 090°44'2 3.1
2018-Apr-10 08:30N 29°33' W 090°45'2 4.5
2018-Apr-10 08:00N 29°32' W 090°48'3 5.6
2018-Apr-10 07:30N 29°32' W 090°51'3 5.5
2018-Apr-10 06:59N 29°33' W 090°54'110 3.6
2018-Apr-09 00:29N 29°56' W 092°59'4 5.0
2018-Apr-08 23:45N 29°56' W 093°03'2 5.7
2018-Apr-08 23:26N 29°56' W 093°05'4 5.5
2018-Apr-08 22:44N 29°56' W 093°10'1 5.6
2018-Apr-08 22:30N 29°57' W 093°10'3 5.8
2018-Apr-08 22:00N 29°59' W 093°13'2 4.5
2018-Apr-08 21:30N 30°01' W 093°14'2 4.9
2018-Apr-08 21:00N 30°03' W 093°16'3 5.3
2018-Apr-08 20:30N 30°05' W 093°18'1 2.5
2018-Apr-08 20:00N 30°06' W 093°19'0 0.6
2018-Apr-08 19:30N 30°06' W 093°19'0 0.0
2018-Apr-08 19:00N 30°06' W 093°19'2 3.3
2018-Apr-08 18:30N 30°05' W 093°20'3 5.5
2018-Apr-08 18:00N 30°04' W 093°23'3 6.4
2018-Apr-08 17:30N 30°04' W 093°27'3 6.9
2018-Apr-08 17:00N 30°04' W 093°31'3 6.7
2018-Apr-08 16:30N 30°04' W 093°35'3 6.6
2018-Apr-08 16:00N 30°04' W 093°39'3 6.1
2018-Apr-08 15:30N 30°03' W 093°42'1 2.6
2018-Apr-08 15:00N 30°04' W 093°43'2 3.6
2018-Apr-08 14:31N 30°06' W 093°43'1 2.2
2018-Apr-08 14:00N 30°07' W 093°42'1 2.4
2018-Apr-08 13:30N 30°08' W 093°42'0 0.9
2018-Apr-08 12:58N 30°08' W 093°41'1 1.7
2018-Apr-08 12:30N 30°09' W 093°42'0 0.8
2018-Apr-08 11:58N 30°09' W 093°42'0 0.0
2018-Apr-08 11:30N 30°09' W 093°42'0 0.0
2018-Apr-08 11:00N 30°09' W 093°42'0 0.0
2018-Apr-08 10:30N 30°09' W 093°42'0 0.0
2018-Apr-08 10:00N 30°09' W 093°42'0 0.0
2018-Apr-08 09:30N 30°09' W 093°42'0 0.0
2018-Apr-08 09:00N 30°09' W 093°42'0 0.0
2018-Apr-08 08:31N 30°09' W 093°42'0 0.0
2018-Apr-08 08:00N 30°09' W 093°42'0 0.0
2018-Apr-08 07:30N 30°09' W 093°42'0 0.2
2018-Apr-08 07:00N 30°09' W 093°42'0 0.3
2018-Apr-08 06:17N 30°09' W 093°42'0 1.0
2018-Apr-08 06:00N 30°09' W 093°42'0 0.0
2018-Apr-08 05:30N 30°09' W 093°42'0 0.1
2018-Apr-08 05:01N 30°09' W 093°42'0 0.0
2018-Apr-08 04:30N 30°09' W 093°42'0 0.0
2018-Apr-08 04:00N 30°09' W 093°42'1 1.0
2018-Apr-08 03:26N 30°09' W 093°43'1 1.2
2018-Apr-08 03:00N 30°09' W 093°42'0 0.5
2018-Apr-08 02:27N 30°09' W 093°42'0 0.6
2018-Apr-08 02:00N 30°09' W 093°42'0 0.3
2018-Apr-08 01:16N 30°09' W 093°42'0 1.0
2018-Apr-08 01:00N 30°09' W 093°42'1 1.1
2018-Apr-08 00:30N 30°09' W 093°43'1 1.2
2018-Apr-08 00:01N 30°09' W 093°42'0 0.2
2018-Apr-07 23:30N 30°09' W 093°42'0 0.1
2018-Apr-07 22:59N 30°09' W 093°42'0 0.1
2018-Apr-07 22:29N 30°09' W 093°42'0 0.1
2018-Apr-07 22:00N 30°09' W 093°42'0 0.1
2018-Apr-07 21:27N 30°09' W 093°42'0 0.1
2018-Apr-07 21:00N 30°09' W 093°42'0 0.1
2018-Apr-07 20:30N 30°09' W 093°42'0 0.0
2018-Apr-07 20:00N 30°09' W 093°42'0 0.0
2018-Apr-07 19:30N 30°09' W 093°42'0 0.0
2018-Apr-07 19:00N 30°09' W 093°42'0 0.0
2018-Apr-07 18:30N 30°09' W 093°42'0 0.4
2018-Apr-07 17:58N 30°09' W 093°42'0 0.5
2018-Apr-07 17:30N 30°09' W 093°42'0 0.0
2018-Apr-07 17:00N 30°09' W 093°42'0 0.0
2018-Apr-07 16:30N 30°09' W 093°42'1 1.2
2018-Apr-07 16:01N 30°09' W 093°43'1 1.3
2018-Apr-07 15:30N 30°09' W 093°42'0 0.5
2018-Apr-07 15:00N 30°09' W 093°42'0 0.6
2018-Apr-07 14:30N 30°09' W 093°42'0 0.2
2018-Apr-07 14:00N 30°09' W 093°42'0 0.9
2018-Apr-07 13:31N 30°09' W 093°43'0 0.4
2018-Apr-07 13:01N 30°09' W 093°43'1 1.3
2018-Apr-07 12:31N 30°09' W 093°42'0 0.1
2018-Apr-07 12:01N 30°09' W 093°42'0 0.0
2018-Apr-07 11:30N 30°09' W 093°42'0 0.0
2018-Apr-07 11:00N 30°09' W 093°42'0 0.0
2018-Apr-07 10:30N 30°09' W 093°42'0 0.0
2018-Apr-07 10:00N 30°09' W 093°42'0 0.0
2018-Apr-07 09:30N 30°09' W 093°42'0 0.0
2018-Apr-07 09:00N 30°09' W 093°42'0 0.0
2018-Apr-07 08:30N 30°09' W 093°42'0 0.0
2018-Apr-07 07:59N 30°09' W 093°42'0 0.0
2018-Apr-07 07:30N 30°09' W 093°42'0 0.2
2018-Apr-07 06:59N 30°09' W 093°42'1 1.2
2018-Apr-07 06:10N 30°08' W 093°41'0 1.7
2018-Apr-07 05:58N 30°08' W 093°42'1 1.7
2018-Apr-07 05:26N 30°07' W 093°42'0 0.7
2018-Apr-07 04:57N 30°07' W 093°42'0 0.7
2018-Apr-07 04:29N 30°07' W 093°42'0 0.5
2018-Apr-07 03:59N 30°07' W 093°42'0 0.0
2018-Apr-07 03:30N 30°07' W 093°42'0 0.0
2018-Apr-07 03:00N 30°07' W 093°42'1 1.0
2018-Apr-07 02:30N 30°07' W 093°43'0 0.4
2018-Apr-07 02:00N 30°07' W 093°43'0 0.2
2018-Apr-07 01:30N 30°07' W 093°43'0 0.0
2018-Apr-07 00:57N 30°07' W 093°43'0 0.0
2018-Apr-07 00:30N 30°07' W 093°43'0 0.3
2018-Apr-07 00:00N 30°06' W 093°43'0 0.2
2018-Apr-06 23:17N 30°07' W 093°43'0 0.0
2018-Apr-06 22:55N 30°07' W 093°43'0 0.0
2018-Apr-06 22:10N 30°07' W 093°43'0 0.0
2018-Apr-06 21:51N 30°07' W 093°43'0 0.0
2018-Apr-06 21:15N 30°07' W 093°43'0 0.0
2018-Apr-06 20:42N 30°07' W 093°43'0 0.0
2018-Apr-06 20:30N 30°07' W 093°43'0 0.2
2018-Apr-06 20:00N 30°07' W 093°43'0 0.5
2018-Apr-06 19:30N 30°07' W 093°42'0 0.0
2018-Apr-06 18:59N 30°07' W 093°42'0 0.0
2018-Apr-06 18:30N 30°07' W 093°42'0 0.0
2018-Apr-06 18:00N 30°07' W 093°42'0 0.0
2018-Apr-06 17:28N 30°07' W 093°42'0 0.0
2018-Apr-06 16:57N 30°07' W 093°42'0 0.0
2018-Apr-06 16:29N 30°07' W 093°42'0 0.1
2018-Apr-06 16:00N 30°07' W 093°42'1 1.4
2018-Apr-06 15:30N 30°06' W 093°43'1 2.5
2018-Apr-06 14:58N 30°05' W 093°43'1 2.9
2018-Apr-06 14:30N 30°04' W 093°43'1 2.3
2018-Apr-06 14:00N 30°04' W 093°41'1 1.9
2018-Apr-06 13:30N 30°04' W 093°40'2 3.9
2018-Apr-06 13:00N 30°04' W 093°38'2 3.6
2018-Apr-06 12:30N 30°04' W 093°36'2 3.4
2018-Apr-06 11:59N 30°04' W 093°34'2 3.3
2018-Apr-06 11:30N 30°04' W 093°32'2 3.2
2018-Apr-06 11:00N 30°04' W 093°30'1 2.9
2018-Apr-06 10:30N 30°04' W 093°29'2 3.1
2018-Apr-06 10:00N 30°04' W 093°27'1 2.5
2018-Apr-06 09:30N 30°04' W 093°25'1 2.9
2018-Apr-06 09:00N 30°04' W 093°24'1 2.8
2018-Apr-06 08:30N 30°04' W 093°22'1 2.8
2018-Apr-06 08:00N 30°04' W 093°21'2 3.3
2018-Apr-06 07:30N 30°06' W 093°19'1 2.6
2018-Apr-06 07:00N 30°05' W 093°18'0 1.0
2018-Apr-06 06:30N 30°05' W 093°17'1 2.0
2018-Apr-06 06:00N 30°05' W 093°17'0 0.8
2018-Apr-06 05:30N 30°04' W 093°16'0 0.9
2018-Apr-06 05:00N 30°04' W 093°16'0 0.3
2018-Apr-06 04:30N 30°04' W 093°16'0 0.1
2018-Apr-06 04:00N 30°04' W 093°16'0 0.1
2018-Apr-06 03:30N 30°04' W 093°16'0 0.0
2018-Apr-06 03:00N 30°04' W 093°16'0 0.0
2018-Apr-06 02:30N 30°04' W 093°16'0 0.1
2018-Apr-06 02:00N 30°04' W 093°16'0 0.5
2018-Apr-06 01:30N 30°04' W 093°16'2 3.5
2018-Apr-06 01:00N 30°02' W 093°15'2 3.5
2018-Apr-06 00:30N 30°01' W 093°14'2 3.9
2018-Apr-06 00:00N 29°59' W 093°12'2 4.0
2018-Apr-05 23:30N 29°58' W 093°11'2 3.9
2018-Apr-05 23:00N 29°56' W 093°09'1 3.0
2018-Apr-05 22:30N 29°56' W 093°08'2 3.5
2018-Apr-05 22:00N 29°56' W 093°06'2 3.9
2018-Apr-05 21:29N 29°56' W 093°03'113 3.0
2018-Apr-04 08:28N 29°34' W 090°56'2 4.7
2018-Apr-04 07:58N 29°33' W 090°54'2 4.0
2018-Apr-04 07:30N 29°32' W 090°52'2 3.6
2018-Apr-04 07:00N 29°32' W 090°50'2 3.6
2018-Apr-04 06:30N 29°32' W 090°48'2 3.4
2018-Apr-04 06:00N 29°32' W 090°46'2 3.1
2018-Apr-04 05:30N 29°34' W 090°45'1 2.9
2018-Apr-04 05:00N 29°34' W 090°43'2 3.2
2018-Apr-04 04:29N 29°36' W 090°43'1 2.5
2018-Apr-04 04:00N 29°37' W 090°42'2 3.7
2018-Apr-04 03:30N 29°36' W 090°40'2 3.7
2018-Apr-04 03:00N 29°35' W 090°38'2 3.5
2018-Apr-04 02:30N 29°35' W 090°36'2 3.5
2018-Apr-04 01:59N 29°34' W 090°34'2 3.8
2018-Apr-04 01:30N 29°34' W 090°32'2 4.0
2018-Apr-04 01:00N 29°34' W 090°29'2 4.0
2018-Apr-04 00:30N 29°33' W 090°27'2 4.0
2018-Apr-03 23:58N 29°33' W 090°25'  

Dump ship's entire track history